Otis Orchards, WA (99027)

11:30 PM PDT on September 04, 2015 (GMT -0700)
Otis Orchards | | Change Station
CLOSE
Current Station
Personal Weather Station
Location: Otis Orchards, WA
Elevation: 2065 ft
Nearby Weather Stations

Elev 2065 ft 47.70 °N, 117.10 °W | Updated 30 seconds ago

Overcast
Overcast
60.8 °F
Feels Like 60.8 °F
N
0.0
Wind Variable Wind from East
Gusts 0.0 mph

Today
High -- | Low -- °F
--% Chance of Precip.
Yesterday
High -- | Low -- °F
Precip. -- in
6:10 AM 7:23 PM
Waning Gibbous, 52% visible
Pressure 29.79 in
Visibility 10.0 miles
Clouds Mostly Cloudy 11000 ft
Dew Point 42 °F
Humidity 50%
Rainfall 0.00 in
Snow Depth Not available.
UV 0 out of 12
Pollen 6.70 out of 12
Air Quality Not available.
Flu Activity Not available.
METAR KSFF 050553Z AUTO 00000KT 10SM BKN110 16/02 A2982 RMK AO2 SLP088 T01560022 10222 20156 50001
Pressure 29.79 in
Visibility 10.0 miles
Clouds Mostly Cloudy 11000 ft
Dew Point 42 °F
Humidity 50%
Rainfall 0.00 in
Snow Depth Not available.
UV 0 out of 12
Pollen 6.70 out of 12
Air Quality Not available.
Flu Activity Not available.
METAR KSFF 050553Z AUTO 00000KT 10SM BKN110 16/02 A2982 RMK AO2 SLP088 T01560022 10222 20156 50001

10-Day Weather Forecast

×

Almanac

Astronomy

Sep. 04, 2015 Rise Set
Actual Time
Civil Twilight
Nautical Twilight
Astronomical Twilight
Moon
Length of Visible Light
Length of Day
Tomorrow will be .
, % of the Moon is Illuminated

Today's Extremes

State Highs State Lows

Community

WunderPhotos

Upload Photos

1,852,430 photos uploaded!

WunderBlogs® & News

Nearby

Air Quality

  Air Quality AQ Index Pollutant
Not available.

Snow Depth

Station Depth Elevation

Earthquake Activity

City Distance Mag. Time & Date
Minimum magnitude displayed is 2.5.

Coastal Water Temperatures

Place Temperature

Stations

Nearby Weather Stations

Station Location Temp. Windchill Dew Point Humidity Wind Precip. Elev Updated Type